sensor_id;sensor_type;location;lat;lon;timestamp;pressure;altitude;pressure_sealevel;temperature;humidity
64679;BME280;51094;53.864;27.676;2023-07-31T00:00:05;98540.78;;;17.08;88.27
64679;BME280;51094;53.864;27.676;2023-07-31T00:02:32;98536.84;;;16.95;87.88
64679;BME280;51094;53.864;27.676;2023-07-31T00:04:59;98571.63;;;17.14;87.91
64679;BME280;51094;53.864;27.676;2023-07-31T00:07:26;98538.97;;;17.00;88.14
64679;BME280;51094;53.864;27.676;2023-07-31T00:09:53;98562.94;;;17.13;87.60
64679;BME280;51094;53.864;27.676;2023-07-31T00:12:20;98579.69;;;17.12;88.11
64679;BME280;51094;53.864;27.676;2023-07-31T00:14:47;98539.97;;;16.99;87.86
64679;BME280;51094;53.864;27.676;2023-07-31T00:17:14;98588.53;;;17.11;88.07
64679;BME280;51094;53.864;27.676;2023-07-31T00:19:41;98558.50;;;17.06;87.68
64679;BME280;51094;53.864;27.676;2023-07-31T00:22:08;98561.28;;;17.04;87.93
64679;BME280;51094;53.864;27.676;2023-07-31T00:24:35;98547.69;;;16.92;87.88
64679;BME280;51094;53.864;27.676;2023-07-31T00:27:02;98567.03;;;17.08;88.08
64679;BME280;51094;53.864;27.676;2023-07-31T00:29:29;98415.84;;;16.01;87.37
64679;BME280;51094;53.864;27.676;2023-07-31T00:31:56;98522.13;;;16.70;87.77
64679;BME280;51094;53.864;27.676;2023-07-31T00:34:23;98564.56;;;17.06;87.92
64679;BME280;51094;53.864;27.676;2023-07-31T00:36:50;98500.91;;;16.63;87.81
64679;BME280;51094;53.864;27.676;2023-07-31T00:39:17;98564.56;;;17.06;87.51
64679;BME280;51094;53.864;27.676;2023-07-31T00:41:44;98516.03;;;16.78;87.79
64679;BME280;51094;53.864;27.676;2023-07-31T00:44:11;98566.53;;;17.04;87.63
64679;BME280;51094;53.864;27.676;2023-07-31T00:46:38;98536.22;;;16.85;87.39
64679;BME280;51094;53.864;27.676;2023-07-31T00:49:05;98559.31;;;16.98;87.28
64679;BME280;51094;53.864;27.676;2023-07-31T00:51:32;98541.81;;;16.82;87.43
64679;BME280;51094;53.864;27.676;2023-07-31T00:54:00;98542.13;;;16.79;87.23
64679;BME280;51094;53.864;27.676;2023-07-31T00:56:27;98562.47;;;16.85;87.36
64679;BME280;51094;53.864;27.676;2023-07-31T00:58:55;98556.72;;;16.82;86.97
64679;BME280;51094;53.864;27.676;2023-07-31T01:01:23;98471.56;;;16.19;87.19
64679;BME280;51094;53.864;27.676;2023-07-31T01:03:51;98483.03;;;16.18;86.93
64679;BME280;51094;53.864;27.676;2023-07-31T01:09:22;98558.81;;;16.62;87.21
64679;BME280;51094;53.864;27.676;2023-07-31T01:12:02;98516.84;;;16.38;87.33
64679;BME280;51094;53.864;27.676;2023-07-31T01:14:29;98535.69;;;16.49;87.46
64679;BME280;51094;53.864;27.676;2023-07-31T01:16:56;98486.31;;;16.12;86.44
64679;BME280;51094;53.864;27.676;2023-07-31T01:19:25;98535.03;;;16.31;86.88
64679;BME280;51094;53.864;27.676;2023-07-31T01:27:35;98555.06;;;16.40;87.40
64679;BME280;51094;53.864;27.676;2023-07-31T01:30:15;98539.28;;;16.24;86.45
64679;BME280;51094;53.864;27.676;2023-07-31T01:32:47;98520.28;;;15.72;87.03
64679;BME280;51094;53.864;27.676;2023-07-31T01:35:15;98494.97;;;15.88;86.90
64679;BME280;51094;53.864;27.676;2023-07-31T01:37:42;98377.97;;;15.13;86.92
64679;BME280;51094;53.864;27.676;2023-07-31T01:40:09;98565.03;;;16.37;87.05
64679;BME280;51094;53.864;27.676;2023-07-31T01:42:36;98567.34;;;16.40;87.17
64679;BME280;51094;53.864;27.676;2023-07-31T01:45:03;98592.75;;;16.31;86.04
64679;BME280;51094;53.864;27.676;2023-07-31T01:47:30;98520.03;;;15.91;86.70
64679;BME280;51094;53.864;27.676;2023-07-31T01:49:57;98500.03;;;15.82;87.34
64679;BME280;51094;53.864;27.676;2023-07-31T01:52:24;98364.81;;;14.96;87.15
64679;BME280;51094;53.864;27.676;2023-07-31T01:54:51;98579.63;;;16.31;87.18
64679;BME280;51094;53.864;27.676;2023-07-31T01:57:18;98578.00;;;16.38;87.52
64679;BME280;51094;53.864;27.676;2023-07-31T01:59:45;98547.97;;;16.24;87.22
64679;BME280;51094;53.864;27.676;2023-07-31T02:02:12;98457.88;;;15.59;87.02
64679;BME280;51094;53.864;27.676;2023-07-31T02:04:39;98574.41;;;16.39;86.82
64679;BME280;51094;53.864;27.676;2023-07-31T02:07:10;98578.66;;;16.40;87.22
64679;BME280;51094;53.864;27.676;2023-07-31T02:09:38;98489.34;;;15.75;86.66
64679;BME280;51094;53.864;27.676;2023-07-31T02:12:05;98563.38;;;16.19;87.05
64679;BME280;51094;53.864;27.676;2023-07-31T02:14:32;98338.53;;;14.72;86.96
64679;BME280;51094;53.864;27.676;2023-07-31T02:16:59;98585.19;;;16.28;87.26
64679;BME280;51094;53.864;27.676;2023-07-31T02:19:25;98425.28;;;15.27;87.22
64679;BME280;51094;53.864;27.676;2023-07-31T02:21:52;98588.81;;;16.27;86.59
64679;BME280;51094;53.864;27.676;2023-07-31T02:24:19;98587.47;;;16.23;87.15
64679;BME280;51094;53.864;27.676;2023-07-31T02:26:46;98393.47;;;15.06;86.63
64679;BME280;51094;53.864;27.676;2023-07-31T02:29:13;98555.09;;;15.90;86.44
64679;BME280;51094;53.864;27.676;2023-07-31T02:31:40;98594.03;;;16.27;87.09
64679;BME280;51094;53.864;27.676;2023-07-31T02:34:06;98381.16;;;14.98;86.97
64679;BME280;51094;53.864;27.676;2023-07-31T02:36:33;98496.88;;;15.70;86.49
64679;BME280;51094;53.864;27.676;2023-07-31T02:39:00;98584.63;;;16.08;86.78
64679;BME280;51094;53.864;27.676;2023-07-31T02:41:27;98511.28;;;15.74;86.86
64679;BME280;51094;53.864;27.676;2023-07-31T02:43:54;98598.16;;;16.29;86.93
64679;BME280;51094;53.864;27.676;2023-07-31T02:46:20;98604.03;;;16.23;86.40
64679;BME280;51094;53.864;27.676;2023-07-31T02:48:51;98597.97;;;16.23;86.81
64679;BME280;51094;53.864;27.676;2023-07-31T02:51:18;98489.75;;;15.54;86.48
64679;BME280;51094;53.864;27.676;2023-07-31T02:53:44;98606.19;;;16.28;86.96
64679;BME280;51094;53.864;27.676;2023-07-31T02:56:11;98581.41;;;16.22;87.04
64679;BME280;51094;53.864;27.676;2023-07-31T02:58:38;98523.63;;;15.90;86.71
64679;BME280;51094;53.864;27.676;2023-07-31T03:01:05;98609.84;;;16.43;86.82
64679;BME280;51094;53.864;27.676;2023-07-31T03:03:32;98600.31;;;16.42;86.38
64679;BME280;51094;53.864;27.676;2023-07-31T03:05:59;98573.72;;;16.29;86.71
64679;BME280;51094;53.864;27.676;2023-07-31T03:08:26;98474.56;;;15.66;86.50
64679;BME280;51094;53.864;27.676;2023-07-31T03:10:52;98598.00;;;16.47;86.66
64679;BME280;51094;53.864;27.676;2023-07-31T03:13:21;98501.94;;;15.72;86.64
64679;BME280;51094;53.864;27.676;2023-07-31T03:15:48;98613.13;;;16.45;86.82
64679;BME280;51094;53.864;27.676;2023-07-31T03:18:15;98603.91;;;16.49;86.96
64679;BME280;51094;53.864;27.676;2023-07-31T03:20:42;98522.19;;;15.95;86.66
64679;BME280;51094;53.864;27.676;2023-07-31T03:23:10;98584.56;;;16.34;87.07
64679;BME280;51094;53.864;27.676;2023-07-31T03:25:37;98561.56;;;16.20;87.28
64679;BME280;51094;53.864;27.676;2023-07-31T03:28:04;98613.75;;;16.47;86.93
64679;BME280;51094;53.864;27.676;2023-07-31T03:30:31;98551.38;;;16.17;87.56
64679;BME280;51094;53.864;27.676;2023-07-31T03:32:58;98612.13;;;16.54;87.52
64679;BME280;51094;53.864;27.676;2023-07-31T03:35:26;98607.22;;;16.59;87.55
64679;BME280;51094;53.864;27.676;2023-07-31T03:37:53;98498.91;;;15.92;87.40
64679;BME280;51094;53.864;27.676;2023-07-31T03:40:20;98629.91;;;16.69;87.19
64679;BME280;51094;53.864;27.676;2023-07-31T03:42:47;98601.38;;;16.74;87.38
64679;BME280;51094;53.864;27.676;2023-07-31T03:45:13;98580.34;;;16.66;86.95
64679;BME280;51094;53.864;27.676;2023-07-31T03:47:40;98576.09;;;16.65;86.94
64679;BME280;51094;53.864;27.676;2023-07-31T03:50:07;98604.81;;;16.82;87.46
64679;BME280;51094;53.864;27.676;2023-07-31T03:52:35;98622.72;;;16.87;87.42
64679;BME280;51094;53.864;27.676;2023-07-31T03:55:02;98612.03;;;16.88;87.61
64679;BME280;51094;53.864;27.676;2023-07-31T03:57:29;98567.22;;;16.66;87.59
64679;BME280;51094;53.864;27.676;2023-07-31T03:59:56;98579.03;;;16.70;87.73
64679;BME280;51094;53.864;27.676;2023-07-31T04:02:23;98604.47;;;16.93;87.85
64679;BME280;51094;53.864;27.676;2023-07-31T04:04:49;98498.13;;;16.16;87.79
64679;BME280;51094;53.864;27.676;2023-07-31T04:07:16;98596.91;;;16.90;87.98
64679;BME280;51094;53.864;27.676;2023-07-31T04:09:46;98580.53;;;16.88;87.76
64679;BME280;51094;53.864;27.676;2023-07-31T04:12:13;98616.28;;;17.06;88.01
64679;BME280;51094;53.864;27.676;2023-07-31T04:14:40;98548.84;;;16.74;87.95
64679;BME280;51094;53.864;27.676;2023-07-31T04:17:07;98551.16;;;16.85;88.00
64679;BME280;51094;53.864;27.676;2023-07-31T04:19:37;98556.91;;;16.88;88.08
64679;BME280;51094;53.864;27.676;2023-07-31T04:22:05;98533.75;;;16.76;87.84
64679;BME280;51094;53.864;27.676;2023-07-31T04:24:32;98581.03;;;16.84;87.60
64679;BME280;51094;53.864;27.676;2023-07-31T04:26:58;98610.38;;;17.12;87.70
64679;BME280;51094;53.864;27.676;2023-07-31T04:29:25;98611.84;;;17.14;88.35
64679;BME280;51094;53.864;27.676;2023-07-31T04:31:52;98528.34;;;16.69;88.39
64679;BME280;51094;53.864;27.676;2023-07-31T04:34:19;98588.06;;;17.16;88.23
64679;BME280;51094;53.864;27.676;2023-07-31T04:36:46;98605.59;;;17.32;88.24
64679;BME280;51094;53.864;27.676;2023-07-31T04:39:13;98481.25;;;16.68;88.23
64679;BME280;51094;53.864;27.676;2023-07-31T04:41:40;98493.22;;;16.78;87.58
64679;BME280;51094;53.864;27.676;2023-07-31T04:44:06;98584.25;;;17.26;88.26
64679;BME280;51094;53.864;27.676;2023-07-31T04:46:33;98579.75;;;17.51;88.33
64679;BME280;51094;53.864;27.676;2023-07-31T04:49:00;98608.94;;;17.81;88.30
64679;BME280;51094;53.864;27.676;2023-07-31T04:51:27;98606.28;;;17.89;88.15
64679;BME280;51094;53.864;27.676;2023-07-31T04:53:55;98604.28;;;17.91;88.11
64679;BME280;51094;53.864;27.676;2023-07-31T04:56:22;98610.69;;;17.97;87.44
64679;BME280;51094;53.864;27.676;2023-07-31T04:58:49;98570.13;;;17.83;87.80
64679;BME280;51094;53.864;27.676;2023-07-31T05:01:16;98608.84;;;18.05;88.04
64679;BME280;51094;53.864;27.676;2023-07-31T05:03:43;98610.97;;;18.10;87.98
64679;BME280;51094;53.864;27.676;2023-07-31T05:06:10;98607.34;;;18.11;87.86
64679;BME280;51094;53.864;27.676;2023-07-31T05:08:37;98534.06;;;17.69;88.04
64679;BME280;51094;53.864;27.676;2023-07-31T05:11:03;98543.91;;;17.75;88.14
64679;BME280;51094;53.864;27.676;2023-07-31T05:13:30;98604.69;;;18.19;88.36
64679;BME280;51094;53.864;27.676;2023-07-31T05:15:57;98604.25;;;18.30;88.67
64679;BME280;51094;53.864;27.676;2023-07-31T05:18:27;98488.72;;;17.67;88.30
64679;BME280;51094;53.864;27.676;2023-07-31T05:20:54;98506.19;;;17.82;88.13
64679;BME280;51094;53.864;27.676;2023-07-31T05:23:21;98573.84;;;18.27;87.95
64679;BME280;51094;53.864;27.676;2023-07-31T05:25:47;98615.47;;;18.55;87.52
64679;BME280;51094;53.864;27.676;2023-07-31T05:28:14;98621.56;;;18.55;87.95
64679;BME280;51094;53.864;27.676;2023-07-31T05:30:41;98566.41;;;18.31;87.81
64679;BME280;51094;53.864;27.676;2023-07-31T05:33:08;98589.38;;;18.45;87.64
64679;BME280;51094;53.864;27.676;2023-07-31T05:35:36;98551.16;;;18.26;88.04
64679;BME280;51094;53.864;27.676;2023-07-31T05:38:03;98608.59;;;18.77;88.16
64679;BME280;51094;53.864;27.676;2023-07-31T05:40:32;98621.00;;;18.91;88.42
64679;BME280;51094;53.864;27.676;2023-07-31T05:42:59;98596.81;;;18.87;88.24
64679;BME280;51094;53.864;27.676;2023-07-31T05:45:26;98613.53;;;19.17;88.11
64679;BME280;51094;53.864;27.676;2023-07-31T05:47:53;98615.56;;;19.30;88.22
64679;BME280;51094;53.864;27.676;2023-07-31T05:50:20;98619.13;;;19.37;87.87
64679;BME280;51094;53.864;27.676;2023-07-31T05:52:47;98587.00;;;19.19;86.91
64679;BME280;51094;53.864;27.676;2023-07-31T05:55:13;98582.78;;;19.10;87.05
64679;BME280;51094;53.864;27.676;2023-07-31T05:57:40;98559.94;;;18.87;86.87
64679;BME280;51094;53.864;27.676;2023-07-31T06:00:08;98615.09;;;19.26;86.75
64679;BME280;51094;53.864;27.676;2023-07-31T06:02:34;98530.28;;;18.71;86.70
64679;BME280;51094;53.864;27.676;2023-07-31T06:05:04;98612.63;;;19.25;86.49
64679;BME280;51094;53.864;27.676;2023-07-31T06:07:33;98615.56;;;19.30;86.19
64679;BME280;51094;53.864;27.676;2023-07-31T06:09:59;98563.34;;;18.96;85.67
64679;BME280;51094;53.864;27.676;2023-07-31T06:12:33;98546.31;;;18.84;85.84
64679;BME280;51094;53.864;27.676;2023-07-31T06:15:01;98618.91;;;19.24;85.49
64679;BME280;51094;53.864;27.676;2023-07-31T06:17:28;98581.78;;;18.96;85.60
64679;BME280;51094;53.864;27.676;2023-07-31T06:19:56;98617.44;;;19.21;86.17
64679;BME280;51094;53.864;27.676;2023-07-31T06:22:23;98540.78;;;18.93;86.34
64679;BME280;51094;53.864;27.676;2023-07-31T06:24:50;98609.25;;;19.69;86.75
64679;BME280;51094;53.864;27.676;2023-07-31T06:27:17;98610.88;;;19.84;86.18
64679;BME280;51094;53.864;27.676;2023-07-31T06:29:44;98528.75;;;19.28;84.90
64679;BME280;51094;53.864;27.676;2023-07-31T06:32:12;98619.78;;;19.98;84.34
64679;BME280;51094;53.864;27.676;2023-07-31T06:34:39;98614.22;;;20.08;84.62
64679;BME280;51094;53.864;27.676;2023-07-31T06:37:06;98527.75;;;19.59;84.71
64679;BME280;51094;53.864;27.676;2023-07-31T06:39:33;98613.47;;;20.14;84.13
64679;BME280;51094;53.864;27.676;2023-07-31T06:42:00;98622.13;;;20.08;83.75
64679;BME280;51094;53.864;27.676;2023-07-31T06:44:27;98594.16;;;19.92;83.20
64679;BME280;51094;53.864;27.676;2023-07-31T06:46:54;98494.00;;;19.10;83.48
64679;BME280;51094;53.864;27.676;2023-07-31T06:49:20;98622.69;;;20.03;83.48
64679;BME280;51094;53.864;27.676;2023-07-31T06:51:47;98597.47;;;20.01;83.32
64679;BME280;51094;53.864;27.676;2023-07-31T06:54:14;98451.41;;;19.21;83.62
64679;BME280;51094;53.864;27.676;2023-07-31T06:56:41;98550.94;;;19.78;82.81
64679;BME280;51094;53.864;27.676;2023-07-31T06:59:08;98554.56;;;19.77;81.90
64679;BME280;51094;53.864;27.676;2023-07-31T07:01:35;98631.03;;;20.21;82.54
64679;BME280;51094;53.864;27.676;2023-07-31T07:04:03;98543.38;;;19.75;81.53
64679;BME280;51094;53.864;27.676;2023-07-31T07:06:30;98626.09;;;20.33;81.31
64679;BME280;51094;53.864;27.676;2023-07-31T07:08:56;98440.22;;;19.34;81.68
64679;BME280;51094;53.864;27.676;2023-07-31T07:11:23;98568.50;;;20.22;81.57
64679;BME280;51094;53.864;27.676;2023-07-31T07:13:50;98590.38;;;20.52;80.33
64679;BME280;51094;53.864;27.676;2023-07-31T07:16:17;98626.84;;;21.06;80.41
64679;BME280;51094;53.864;27.676;2023-07-31T07:18:44;98625.50;;;21.16;77.61
64679;BME280;51094;53.864;27.676;2023-07-31T07:21:29;98624.56;;;21.24;77.22
64679;BME280;51094;53.864;27.676;2023-07-31T07:23:56;98533.09;;;20.80;75.12
64679;BME280;51094;53.864;27.676;2023-07-31T07:26:23;98642.47;;;21.50;75.04
64679;BME280;51094;53.864;27.676;2023-07-31T07:28:50;98627.72;;;21.69;73.88
64679;BME280;51094;53.864;27.676;2023-07-31T07:31:17;98457.66;;;20.71;72.73
64679;BME280;51094;53.864;27.676;2023-07-31T07:33:44;98625.59;;;21.85;71.69
64679;BME280;51094;53.864;27.676;2023-07-31T07:36:10;98604.09;;;21.67;66.41
64679;BME280;51094;53.864;27.676;2023-07-31T07:38:39;98566.78;;;21.49;68.76
64679;BME280;51094;53.864;27.676;2023-07-31T07:41:06;98560.16;;;21.73;68.61
64679;BME280;51094;53.864;27.676;2023-07-31T07:43:33;98555.31;;;21.76;65.66
64679;BME280;51094;53.864;27.676;2023-07-31T07:46:00;98615.25;;;22.38;66.63
64679;BME280;51094;53.864;27.676;2023-07-31T07:48:27;98595.72;;;22.46;66.20
64679;BME280;51094;53.864;27.676;2023-07-31T07:50:54;98602.66;;;22.60;65.96
64679;BME280;51094;53.864;27.676;2023-07-31T07:53:21;98618.16;;;22.70;60.80
64679;BME280;51094;53.864;27.676;2023-07-31T07:55:48;98592.88;;;22.67;63.77
64679;BME280;51094;53.864;27.676;2023-07-31T07:58:15;98594.09;;;22.71;62.49
64679;BME280;51094;53.864;27.676;2023-07-31T08:00:48;98612.13;;;22.89;64.20
64679;BME280;51094;53.864;27.676;2023-07-31T08:03:15;98542.31;;;22.62;60.15
64679;BME280;51094;53.864;27.676;2023-07-31T08:05:44;98610.06;;;23.24;61.03
64679;BME280;51094;53.864;27.676;2023-07-31T08:08:15;98612.94;;;23.36;58.92
64679;BME280;51094;53.864;27.676;2023-07-31T08:10:45;98608.81;;;23.53;59.30
64679;BME280;51094;53.864;27.676;2023-07-31T08:13:12;98610.44;;;23.61;57.66
64679;BME280;51094;53.864;27.676;2023-07-31T08:15:41;98596.34;;;23.47;53.63
64679;BME280;51094;53.864;27.676;2023-07-31T08:18:09;98630.47;;;23.57;53.73
64679;BME280;51094;53.864;27.676;2023-07-31T08:20:36;98614.72;;;23.68;54.00
64679;BME280;51094;53.864;27.676;2023-07-31T08:23:03;98571.44;;;23.48;53.33
64679;BME280;51094;53.864;27.676;2023-07-31T08:25:30;98621.38;;;23.91;51.95
64679;BME280;51094;53.864;27.676;2023-07-31T08:27:57;98622.34;;;24.09;52.88
64679;BME280;51094;53.864;27.676;2023-07-31T08:30:23;98579.59;;;23.73;49.22
64679;BME280;51094;53.864;27.676;2023-07-31T08:32:50;98553.06;;;23.66;52.24
64679;BME280;51094;53.864;27.676;2023-07-31T08:35:17;98610.28;;;24.13;51.60
64679;BME280;51094;53.864;27.676;2023-07-31T08:37:45;98630.50;;;24.21;49.11
64679;BME280;51094;53.864;27.676;2023-07-31T08:40:12;98588.84;;;24.08;50.31
64679;BME280;51094;53.864;27.676;2023-07-31T08:42:44;98585.75;;;24.18;52.69
64679;BME280;51094;53.864;27.676;2023-07-31T08:45:16;98622.75;;;24.58;49.66
64679;BME280;51094;53.864;27.676;2023-07-31T08:47:51;98642.19;;;24.58;49.93
64679;BME280;51094;53.864;27.676;2023-07-31T08:50:20;98524.56;;;23.93;48.26
64679;BME280;51094;53.864;27.676;2023-07-31T08:52:49;98604.22;;;24.44;50.64
64679;BME280;51094;53.864;27.676;2023-07-31T08:55:17;98615.00;;;24.56;49.90
64679;BME280;51094;53.864;27.676;2023-07-31T08:57:45;98593.09;;;24.23;50.21
64679;BME280;51094;53.864;27.676;2023-07-31T09:00:14;98588.53;;;24.36;49.51
64679;BME280;51094;53.864;27.676;2023-07-31T09:05:15;98481.31;;;24.24;52.51
64679;BME280;51094;53.864;27.676;2023-07-31T09:07:45;98610.50;;;25.13;49.78
64679;BME280;51094;53.864;27.676;2023-07-31T09:10:14;98578.59;;;25.13;49.97
64679;BME280;51094;53.864;27.676;2023-07-31T09:12:41;98606.38;;;25.42;49.80
64679;BME280;51094;53.864;27.676;2023-07-31T09:15:08;98604.41;;;25.56;47.91
64679;BME280;51094;53.864;27.676;2023-07-31T09:17:46;98600.09;;;25.79;47.84
64679;BME280;51094;53.864;27.676;2023-07-31T09:20:20;98577.00;;;25.73;47.14
64679;BME280;51094;53.864;27.676;2023-07-31T09:22:51;98586.41;;;25.94;48.92
64679;BME280;51094;53.864;27.676;2023-07-31T09:25:25;98585.41;;;26.07;47.53
64679;BME280;51094;53.864;27.676;2023-07-31T09:28:00;98577.69;;;26.17;45.91
64679;BME280;51094;53.864;27.676;2023-07-31T09:30:28;98556.28;;;25.94;43.21
64679;BME280;51094;53.864;27.676;2023-07-31T09:33:05;98619.63;;;25.92;44.11
64679;BME280;51094;53.864;27.676;2023-07-31T09:35:34;98586.06;;;26.21;45.03
64679;BME280;51094;53.864;27.676;2023-07-31T09:38:14;98546.91;;;26.21;44.67
64679;BME280;51094;53.864;27.676;2023-07-31T09:40:46;98569.16;;;26.57;44.22
64679;BME280;51094;53.864;27.676;2023-07-31T09:43:18;98570.84;;;26.93;43.78
64679;BME280;51094;53.864;27.676;2023-07-31T09:45:46;98572.13;;;26.90;44.49
64679;BME280;51094;53.864;27.676;2023-07-31T09:48:18;98516.09;;;26.67;45.46
64679;BME280;51094;53.864;27.676;2023-07-31T09:50:48;98514.72;;;26.76;42.74
64679;BME280;51094;53.864;27.676;2023-07-31T09:53:16;98511.34;;;26.92;43.32
64679;BME280;51094;53.864;27.676;2023-07-31T09:55:43;98579.16;;;27.61;42.59
64679;BME280;51094;53.864;27.676;2023-07-31T09:58:12;98546.97;;;27.56;41.93
64679;BME280;51094;53.864;27.676;2023-07-31T10:00:39;98588.63;;;27.80;40.16
64679;BME280;51094;53.864;27.676;2023-07-31T10:03:08;98585.03;;;27.87;40.33
64679;BME280;51094;53.864;27.676;2023-07-31T10:05:38;98541.41;;;27.46;40.54
64679;BME280;51094;53.864;27.676;2023-07-31T10:08:07;98571.41;;;27.25;40.24
64679;BME280;51094;53.864;27.676;2023-07-31T10:10:37;98588.53;;;27.40;40.72
64679;BME280;51094;53.864;27.676;2023-07-31T10:13:04;98569.28;;;27.15;40.67
64679;BME280;51094;53.864;27.676;2023-07-31T10:15:33;98522.25;;;26.91;40.61
64679;BME280;51094;53.864;27.676;2023-07-31T10:18:01;98586.25;;;27.21;40.41
64679;BME280;51094;53.864;27.676;2023-07-31T10:20:29;98546.84;;;26.81;41.55
64679;BME280;51094;53.864;27.676;2023-07-31T10:22:57;98486.38;;;26.51;42.13
64679;BME280;51094;53.864;27.676;2023-07-31T10:25:26;98576.25;;;27.39;43.29
64679;BME280;51094;53.864;27.676;2023-07-31T10:27:54;98567.38;;;27.86;41.40
64679;BME280;51094;53.864;27.676;2023-07-31T10:30:25;98555.91;;;28.13;38.20
64679;BME280;51094;53.864;27.676;2023-07-31T10:32:53;98517.88;;;28.23;37.96
64679;BME280;51094;53.864;27.676;2023-07-31T10:35:21;98599.00;;;29.02;36.98
64679;BME280;51094;53.864;27.676;2023-07-31T10:37:52;98565.41;;;28.95;36.26
64679;BME280;51094;53.864;27.676;2023-07-31T10:40:25;98524.88;;;28.41;37.03
64679;BME280;51094;53.864;27.676;2023-07-31T10:42:54;98557.16;;;28.51;36.72
64679;BME280;51094;53.864;27.676;2023-07-31T10:48:02;98556.63;;;29.16;38.66
64679;BME280;51094;53.864;27.676;2023-07-31T10:50:31;98533.72;;;30.07;37.48
64679;BME280;51094;53.864;27.676;2023-07-31T10:53:00;98545.13;;;30.73;33.22
64679;BME280;51094;53.864;27.676;2023-07-31T10:55:40;98547.78;;;31.05;32.37
64679;BME280;51094;53.864;27.676;2023-07-31T10:58:11;98286.72;;;29.62;32.88
64679;BME280;51094;53.864;27.676;2023-07-31T11:00:41;98534.31;;;31.42;30.75
64679;BME280;51094;53.864;27.676;2023-07-31T11:03:16;98557.34;;;31.28;30.25
64679;BME280;51094;53.864;27.676;2023-07-31T11:08:34;98514.53;;;31.12;32.28
64679;BME280;51094;53.864;27.676;2023-07-31T11:16:09;98513.91;;;30.99;30.90
64679;BME280;51094;53.864;27.676;2023-07-31T11:18:42;98508.84;;;30.66;30.59
64679;BME280;51094;53.864;27.676;2023-07-31T11:21:16;98466.63;;;31.46;30.96
64679;BME280;51094;53.864;27.676;2023-07-31T11:23:54;98486.50;;;32.63;30.10
64679;BME280;51094;53.864;27.676;2023-07-31T11:26:24;98522.69;;;33.67;28.26
64679;BME280;51094;53.864;27.676;2023-07-31T11:28:51;98496.50;;;32.88;27.63
64679;BME280;51094;53.864;27.676;2023-07-31T11:31:18;98522.69;;;31.84;28.56
64679;BME280;51094;53.864;27.676;2023-07-31T11:33:45;98498.00;;;30.93;29.97
64679;BME280;51094;53.864;27.676;2023-07-31T11:36:17;98509.03;;;30.96;30.96
64679;BME280;51094;53.864;27.676;2023-07-31T11:38:44;98515.78;;;30.62;31.10
64679;BME280;51094;53.864;27.676;2023-07-31T11:41:14;98436.03;;;29.28;32.94
64679;BME280;51094;53.864;27.676;2023-07-31T11:43:42;98530.34;;;29.13;33.48
64679;BME280;51094;53.864;27.676;2023-07-31T11:46:09;98523.69;;;28.48;34.31
64679;BME280;51094;53.864;27.676;2023-07-31T11:48:37;98538.78;;;28.26;35.03
64679;BME280;51094;53.864;27.676;2023-07-31T11:51:06;98540.03;;;29.36;33.80
64679;BME280;51094;53.864;27.676;2023-07-31T11:53:43;98571.97;;;32.05;31.20
64679;BME280;51094;53.864;27.676;2023-07-31T11:56:13;98515.13;;;34.96;27.07
64679;BME280;51094;53.864;27.676;2023-07-31T11:58:43;98535.34;;;37.48;23.99
64679;BME280;51094;53.864;27.676;2023-07-31T12:01:11;98529.84;;;38.75;21.71
64679;BME280;51094;53.864;27.676;2023-07-31T12:03:44;98530.44;;;41.50;19.49
64679;BME280;51094;53.864;27.676;2023-07-31T12:06:11;98533.88;;;41.38;18.00
64679;BME280;51094;53.864;27.676;2023-07-31T12:08:38;98484.88;;;36.60;22.16
64679;BME280;51094;53.864;27.676;2023-07-31T12:11:07;98503.31;;;37.64;22.20
64679;BME280;51094;53.864;27.676;2023-07-31T12:13:36;98509.31;;;41.68;19.07
64679;BME280;51094;53.864;27.676;2023-07-31T12:16:03;98523.00;;;44.58;16.28
64679;BME280;51094;53.864;27.676;2023-07-31T12:18:37;98528.97;;;46.63;14.47
64679;BME280;51094;53.864;27.676;2023-07-31T12:21:08;98518.03;;;47.58;13.29
64679;BME280;51094;53.864;27.676;2023-07-31T12:23:36;98490.06;;;47.56;13.62
64679;BME280;51094;53.864;27.676;2023-07-31T12:28:37;98508.31;;;49.02;11.36
64679;BME280;51094;53.864;27.676;2023-07-31T12:31:09;98511.94;;;47.23;13.43
64679;BME280;51094;53.864;27.676;2023-07-31T12:33:38;98509.94;;;45.62;13.98
64679;BME280;51094;53.864;27.676;2023-07-31T12:36:24;98512.50;;;42.41;16.50
64679;BME280;51094;53.864;27.676;2023-07-31T12:38:52;98478.66;;;38.69;19.53
64679;BME280;51094;53.864;27.676;2023-07-31T12:41:19;98503.31;;;35.88;22.82
64679;BME280;51094;53.864;27.676;2023-07-31T12:43:46;98495.94;;;33.86;24.90
64679;BME280;51094;53.864;27.676;2023-07-31T12:46:13;98454.66;;;31.79;27.68
64679;BME280;51094;53.864;27.676;2023-07-31T12:48:40;98504.19;;;30.93;28.82
64679;BME280;51094;53.864;27.676;2023-07-31T12:51:07;98500.91;;;30.22;30.19
64679;BME280;51094;53.864;27.676;2023-07-31T12:53:35;98503.56;;;29.73;30.85
64679;BME280;51094;53.864;27.676;2023-07-31T12:56:02;98514.28;;;29.13;32.65
64679;BME280;51094;53.864;27.676;2023-07-31T12:58:29;98566.97;;;27.65;37.29
64679;BME280;51094;53.864;27.676;2023-07-31T13:00:56;98461.47;;;25.74;40.35
64679;BME280;51094;53.864;27.676;2023-07-31T13:03:23;98476.19;;;25.22;43.31
64679;BME280;51094;53.864;27.676;2023-07-31T13:05:50;98552.41;;;25.35;44.83
64679;BME280;51094;53.864;27.676;2023-07-31T13:08:17;98551.56;;;24.66;45.49
64679;BME280;51094;53.864;27.676;2023-07-31T13:10:44;98572.25;;;24.58;46.39
64679;BME280;51094;53.864;27.676;2023-07-31T13:13:11;98499.69;;;23.87;47.92
64679;BME280;51094;53.864;27.676;2023-07-31T13:15:38;98572.34;;;24.00;49.06
64679;BME280;51094;53.864;27.676;2023-07-31T13:18:05;98588.31;;;23.86;49.47